createdAt,value
2023-04-28T00:01:01.890Z,2.50
2023-04-28T00:03:56.981Z,2.00
2023-04-28T00:06:50.351Z,2.17
2023-04-28T00:09:43.182Z,2.17
2023-04-28T00:12:36.508Z,2.17
2023-04-28T00:15:29.394Z,2.22
2023-04-28T00:18:24.204Z,2.17
2023-04-28T00:21:18.227Z,1.80
2023-04-28T00:24:11.319Z,2.13
2023-04-28T00:27:04.413Z,2.00
2023-04-28T00:29:57.531Z,2.05
2023-04-28T00:32:50.181Z,2.00
2023-04-28T00:35:44.612Z,2.20
2023-04-28T00:38:37.497Z,2.10
2023-04-28T00:41:30.511Z,1.88
2023-04-28T00:44:23.340Z,1.90
2023-04-28T00:47:19.585Z,1.65
2023-04-28T00:50:12.556Z,2.10
2023-04-28T00:53:06.598Z,2.05
2023-04-28T00:55:59.837Z,1.80
2023-04-28T00:58:53.834Z,2.20
2023-04-28T01:01:47.505Z,2.03
2023-04-28T01:04:40.893Z,2.20
2023-04-28T01:07:34.778Z,2.50
2023-04-28T01:10:29.870Z,2.10
2023-04-28T01:13:23.517Z,2.50
2023-04-28T01:16:16.416Z,2.15
2023-04-28T01:19:12.941Z,2.88
2023-04-28T01:22:06.964Z,2.03
2023-04-28T01:25:03.315Z,2.00
2023-04-28T01:27:56.324Z,1.90
2023-04-28T01:30:49.452Z,2.38
2023-04-28T01:33:42.419Z,2.60
2023-04-28T01:36:37.370Z,2.08
2023-04-28T01:39:31.424Z,1.90
2023-04-28T01:42:28.433Z,1.90
2023-04-28T01:45:21.870Z,2.03
2023-04-28T01:48:15.539Z,2.20
2023-04-28T01:51:10.073Z,2.17
2023-04-28T01:54:25.034Z,2.30
2023-04-28T01:57:19.173Z,2.30
2023-04-28T02:00:15.850Z,2.25
2023-04-28T02:03:09.850Z,2.40
2023-04-28T02:06:03.344Z,1.85
2023-04-28T02:08:56.467Z,1.95
2023-04-28T02:11:49.510Z,2.10
2023-04-28T02:14:42.573Z,2.30
2023-04-28T02:17:36.969Z,1.80
2023-04-28T02:20:31.877Z,2.20
2023-04-28T02:23:26.731Z,2.15
2023-04-28T02:26:19.514Z,2.10
2023-04-28T02:29:12.393Z,1.98
2023-04-28T02:32:05.213Z,2.10
2023-04-28T02:34:59.942Z,2.13
2023-04-28T02:37:53.460Z,2.50
2023-04-28T02:40:46.548Z,2.45
2023-04-28T02:43:39.515Z,2.33
2023-04-28T02:46:32.688Z,2.25
2023-04-28T02:49:25.531Z,2.00
2023-04-28T02:52:19.995Z,2.28
2023-04-28T02:55:23.682Z,2.53
2023-04-28T02:58:17.869Z,2.08
2023-04-28T03:01:11.372Z,1.88
2023-04-28T03:04:04.958Z,2.42
2023-04-28T03:06:58.286Z,2.25
2023-04-28T03:09:52.710Z,2.15
2023-04-28T03:12:45.478Z,2.03
2023-04-28T03:15:38.550Z,2.28
2023-04-28T03:18:31.462Z,2.30
2023-04-28T03:21:26.313Z,1.88
2023-04-28T03:24:19.311Z,2.10
2023-04-28T03:27:14.041Z,2.38
2023-04-28T03:30:08.744Z,2.35
2023-04-28T03:33:01.440Z,2.15
2023-04-28T03:35:54.786Z,2.17
2023-04-28T03:38:47.811Z,1.90
2023-04-28T03:41:41.414Z,2.10
2023-04-28T03:44:36.125Z,2.30
2023-04-28T03:47:29.569Z,2.50
2023-04-28T03:50:24.767Z,2.20
2023-04-28T03:53:19.633Z,2.30
2023-04-28T03:56:12.513Z,2.45
2023-04-28T03:59:05.332Z,2.65
2023-04-28T04:02:00.159Z,2.28
2023-04-28T04:04:54.296Z,2.53
2023-04-28T04:07:47.440Z,2.38
2023-04-28T04:10:40.549Z,2.55
2023-04-28T04:13:33.419Z,2.90
2023-04-28T04:16:26.871Z,2.22
2023-04-28T04:19:24.049Z,2.50
2023-04-28T04:22:17.608Z,3.20
2023-04-28T04:25:11.025Z,2.40
2023-04-28T04:28:04.943Z,2.45
2023-04-28T04:30:58.550Z,2.55
2023-04-28T04:33:51.691Z,2.10
2023-04-28T04:36:45.712Z,2.30
2023-04-28T04:39:38.351Z,2.15
2023-04-28T04:42:31.961Z,2.40
2023-04-28T04:45:25.469Z,2.30
2023-04-28T04:48:18.710Z,2.70
2023-04-28T04:51:11.988Z,2.28
2023-04-28T04:54:06.737Z,2.15
2023-04-28T04:56:59.526Z,2.38
2023-04-28T04:59:52.706Z,2.78
2023-04-28T05:02:46.130Z,2.10
2023-04-28T05:05:40.127Z,2.75
2023-04-28T05:08:33.757Z,2.60
2023-04-28T05:11:28.032Z,2.58
2023-04-28T05:14:21.534Z,2.83
2023-04-28T05:17:14.525Z,2.60
2023-04-28T05:20:09.411Z,2.30
2023-04-28T05:23:03.778Z,2.38
2023-04-28T05:25:56.755Z,2.55
2023-04-28T05:28:51.331Z,2.50
2023-04-28T05:31:44.605Z,2.63
2023-04-28T05:34:37.355Z,2.65
2023-04-28T05:37:30.649Z,2.47
2023-04-28T05:40:23.704Z,2.53
2023-04-28T05:43:16.607Z,2.30
2023-04-28T05:46:28.266Z,2.75
2023-04-28T05:49:22.472Z,2.30
2023-04-28T05:52:15.752Z,2.45
2023-04-28T05:55:09.335Z,2.20
2023-04-28T05:58:02.738Z,2.30
2023-04-28T06:00:55.677Z,2.55
2023-04-28T06:03:50.127Z,2.40
2023-04-28T06:06:43.550Z,1.98
2023-04-28T06:09:36.971Z,2.35
2023-04-28T06:12:30.721Z,2.08
2023-04-28T06:15:23.854Z,2.25
2023-04-28T06:18:16.756Z,2.10
2023-04-28T06:21:11.036Z,2.40
2023-04-28T06:24:05.158Z,2.55
2023-04-28T06:26:58.750Z,2.47
2023-04-28T06:29:51.314Z,2.25
2023-04-28T06:32:44.675Z,2.10
2023-04-28T06:35:39.084Z,2.22
2023-04-28T06:38:34.013Z,2.40
2023-04-28T06:41:29.145Z,2.08
2023-04-28T06:44:23.176Z,2.38
2023-04-28T06:47:17.004Z,2.47
2023-04-28T06:50:11.250Z,2.08
2023-04-28T06:53:04.498Z,2.25
2023-04-28T06:55:59.000Z,2.30
2023-04-28T06:58:53.058Z,2.55
2023-04-28T07:01:46.808Z,2.50
2023-04-28T07:04:40.123Z,2.33
2023-04-28T07:07:33.789Z,2.28
2023-04-28T07:10:26.816Z,2.65
2023-04-28T07:13:21.175Z,2.60
2023-04-28T07:16:14.903Z,2.65
2023-04-28T07:19:08.372Z,2.67
2023-04-28T07:22:01.749Z,2.78
2023-04-28T07:24:54.908Z,2.72
2023-04-28T07:27:47.874Z,2.47
2023-04-28T07:30:41.924Z,2.10
2023-04-28T07:33:34.442Z,2.15
2023-04-28T07:36:27.879Z,2.33
2023-04-28T07:39:25.337Z,1.98
2023-04-28T07:42:19.060Z,2.58
2023-04-28T07:45:13.861Z,2.17
2023-04-28T07:48:10.005Z,2.20
2023-04-28T07:51:03.388Z,1.90
2023-04-28T07:53:57.208Z,2.30
2023-04-28T07:56:52.697Z,2.17
2023-04-28T07:59:45.850Z,1.95
2023-04-28T08:02:39.077Z,2.10
2023-04-28T08:05:34.167Z,2.58
2023-04-28T08:08:27.631Z,2.85
2023-04-28T08:11:21.376Z,3.10
2023-04-28T08:14:15.151Z,3.10
2023-04-28T08:17:08.475Z,2.72
2023-04-28T08:20:01.788Z,2.88
2023-04-28T08:22:56.171Z,3.20
2023-04-28T08:25:51.263Z,2.83
2023-04-28T08:28:44.810Z,3.30
2023-04-28T08:31:37.892Z,2.92
2023-04-28T08:34:30.911Z,3.22
2023-04-28T08:37:23.627Z,2.85
2023-04-28T08:40:18.344Z,3.05
2023-04-28T08:43:11.666Z,3.53
2023-04-28T08:46:07.832Z,2.88
2023-04-28T08:49:02.458Z,3.10
2023-04-28T08:52:00.259Z,3.03
2023-04-28T08:54:54.238Z,2.55
2023-04-28T08:57:51.457Z,2.65
2023-04-28T09:00:44.614Z,2.85
2023-04-28T09:03:38.030Z,2.53
2023-04-28T09:06:34.884Z,2.58
2023-04-28T09:09:32.494Z,2.28
2023-04-28T09:12:37.695Z,2.88
2023-04-28T09:15:34.374Z,2.30
2023-04-28T09:18:28.223Z,2.45
2023-04-28T09:21:21.898Z,2.28
2023-04-28T09:24:30.595Z,2.65
2023-04-28T09:27:28.706Z,2.42
2023-04-28T09:30:39.947Z,2.42
2023-04-28T09:33:33.152Z,2.83
2023-04-28T09:36:30.678Z,2.70
2023-04-28T09:39:32.250Z,2.92
2023-04-28T09:42:36.406Z,3.28
2023-04-28T09:45:42.943Z,3.17
2023-04-28T09:48:38.026Z,3.15
2023-04-28T09:51:30.688Z,2.88
2023-04-28T09:54:24.542Z,3.40
2023-04-28T09:57:18.789Z,3.03
2023-04-28T10:00:12.799Z,3.38
2023-04-28T10:03:08.145Z,3.55
2023-04-28T10:06:04.215Z,3.92
2023-04-28T10:09:00.447Z,4.00
2023-04-28T10:11:53.718Z,3.58
2023-04-28T10:14:50.051Z,3.53
2023-04-28T10:17:42.875Z,4.38
2023-04-28T10:20:37.532Z,4.00
2023-04-28T10:24:04.948Z,3.83
2023-04-28T10:27:06.357Z,4.43
2023-04-28T10:30:22.885Z,4.57
2023-04-28T10:33:26.731Z,4.40
2023-04-28T10:36:50.753Z,4.05
2023-04-28T10:39:58.518Z,4.57
2023-04-28T10:42:56.302Z,4.10
2023-04-28T10:46:11.714Z,5.10
2023-04-28T10:49:04.906Z,5.22
2023-04-28T10:51:59.438Z,5.72
2023-04-28T10:55:28.766Z,5.57
2023-04-28T10:58:34.187Z,5.53
2023-04-28T11:01:29.887Z,4.82
2023-04-28T11:04:24.338Z,6.57
2023-04-28T11:07:19.229Z,5.95
2023-04-28T11:10:12.885Z,5.57
2023-04-28T11:13:28.214Z,5.25
2023-04-28T11:16:24.895Z,5.45
2023-04-28T11:19:20.659Z,5.72
2023-04-28T11:22:16.590Z,4.85
2023-04-28T11:25:11.248Z,5.22
2023-04-28T11:28:06.972Z,5.97
2023-04-28T11:31:12.493Z,5.07
2023-04-28T11:34:06.695Z,5.90
2023-04-28T11:37:00.423Z,5.68
2023-04-28T11:39:53.689Z,5.95
2023-04-28T11:42:51.593Z,4.90
2023-04-28T11:45:47.583Z,5.40
2023-04-28T11:48:41.753Z,5.25
2023-04-28T11:51:38.119Z,5.30
2023-04-28T11:54:31.524Z,5.30
2023-04-28T11:57:25.340Z,4.88
2023-04-28T12:00:22.689Z,5.15
2023-04-28T12:03:15.822Z,4.85
2023-04-28T12:06:09.649Z,4.80
2023-04-28T12:09:15.646Z,5.88
2023-04-28T12:12:11.920Z,5.25
2023-04-28T12:15:06.825Z,5.50
2023-04-28T12:18:11.516Z,5.82
2023-04-28T12:21:05.578Z,5.50
2023-04-28T12:23:59.050Z,4.63
2023-04-28T12:26:51.840Z,4.80
2023-04-28T12:29:46.513Z,4.18
2023-04-28T12:32:40.572Z,4.57
2023-04-28T12:35:35.577Z,5.15
2023-04-28T12:38:29.201Z,4.10
2023-04-28T12:41:21.866Z,4.85
2023-04-28T12:44:15.923Z,4.70
2023-04-28T12:47:11.001Z,4.75
2023-04-28T12:50:03.657Z,4.40
2023-04-28T12:52:58.621Z,4.82
2023-04-28T12:55:52.254Z,4.32
2023-04-28T12:58:45.015Z,3.88
2023-04-28T13:01:38.371Z,4.10
2023-04-28T13:04:32.763Z,3.92
2023-04-28T13:07:26.097Z,3.95
2023-04-28T13:10:21.409Z,3.85
2023-04-28T13:13:14.929Z,3.55
2023-04-28T13:16:08.786Z,3.20
2023-04-28T13:19:02.557Z,3.55
2023-04-28T13:21:56.234Z,3.97
2023-04-28T13:24:49.014Z,4.00
2023-04-28T13:27:43.503Z,3.10
2023-04-28T13:30:36.878Z,3.67
2023-04-28T13:33:31.348Z,3.75
2023-04-28T13:36:25.052Z,3.67
2023-04-28T13:39:20.366Z,3.45
2023-04-28T13:42:14.101Z,3.20
2023-04-28T13:45:09.006Z,3.63
2023-04-28T13:48:03.218Z,3.47
2023-04-28T13:50:56.310Z,3.38
2023-04-28T13:53:52.276Z,3.33
2023-04-28T13:56:45.002Z,3.30
2023-04-28T13:59:37.934Z,3.13
2023-04-28T14:02:33.371Z,3.40
2023-04-28T14:05:29.723Z,3.47
2023-04-28T14:08:24.421Z,3.20
2023-04-28T14:11:18.768Z,3.45
2023-04-28T14:14:12.096Z,3.17
2023-04-28T14:17:05.809Z,3.15
2023-04-28T14:20:01.434Z,2.78
2023-04-28T14:22:55.186Z,3.22
2023-04-28T14:25:48.191Z,2.60
2023-04-28T14:28:42.191Z,2.92
2023-04-28T14:31:35.155Z,2.97
2023-04-28T14:34:28.660Z,2.97
2023-04-28T14:37:23.141Z,2.83
2023-04-28T14:40:16.477Z,2.90
2023-04-28T14:43:10.265Z,3.25
2023-04-28T14:46:03.571Z,3.35
2023-04-28T14:48:58.676Z,2.83
2023-04-28T14:51:51.939Z,2.80
2023-04-28T14:54:47.279Z,3.05
2023-04-28T14:57:40.756Z,2.60
2023-04-28T15:00:34.600Z,2.58
2023-04-28T15:03:29.078Z,2.72
2023-04-28T15:06:22.247Z,2.78
2023-04-28T15:09:15.299Z,2.97
2023-04-28T15:12:09.457Z,3.15
2023-04-28T15:15:03.201Z,2.85
2023-04-28T15:18:00.602Z,2.25
2023-04-28T15:20:53.872Z,2.70
2023-04-28T15:23:47.338Z,2.53
2023-04-28T15:26:40.196Z,2.45
2023-04-28T15:29:34.656Z,2.50
2023-04-28T15:32:30.443Z,2.58
2023-04-28T15:35:24.482Z,2.67
2023-04-28T15:38:18.194Z,1.77
2023-04-28T15:41:11.316Z,2.30
2023-04-28T15:44:04.960Z,2.38
2023-04-28T15:46:59.953Z,2.20
2023-04-28T15:49:53.443Z,2.50
2023-04-28T15:52:47.403Z,2.05
2023-04-28T15:55:40.945Z,1.90
2023-04-28T15:58:34.376Z,2.20
2023-04-28T16:01:27.445Z,2.22
2023-04-28T16:04:22.752Z,2.03
2023-04-28T16:07:15.974Z,1.80
2023-04-28T16:10:10.621Z,2.03
2023-04-28T16:13:05.439Z,1.90
2023-04-28T16:15:59.433Z,2.10
2023-04-28T16:18:52.394Z,2.40
2023-04-28T16:21:46.746Z,2.40
2023-04-28T16:24:43.575Z,1.92
2023-04-28T16:27:37.797Z,2.55
2023-04-28T16:30:32.632Z,1.88
2023-04-28T16:33:26.634Z,2.03
2023-04-28T16:36:20.254Z,2.13
2023-04-28T16:39:15.452Z,1.70
2023-04-28T16:42:08.909Z,2.28
2023-04-28T16:45:02.119Z,2.38
2023-04-28T16:47:55.223Z,1.92
2023-04-28T16:50:48.004Z,1.85
2023-04-28T16:53:41.290Z,1.60
2023-04-28T16:56:38.920Z,1.83
2023-04-28T16:59:33.762Z,1.80
2023-04-28T17:02:29.574Z,1.55
2023-04-28T17:05:23.181Z,2.00
2023-04-28T17:08:16.396Z,1.98
2023-04-28T17:11:09.460Z,1.77
2023-04-28T17:14:04.390Z,1.80
2023-04-28T17:16:57.250Z,2.20
2023-04-28T17:19:50.254Z,1.80
2023-04-28T17:22:43.409Z,1.90
2023-04-28T17:25:38.539Z,1.77
2023-04-28T17:28:32.683Z,1.45
2023-04-28T17:31:28.022Z,1.60
2023-04-28T17:34:21.287Z,1.75
2023-04-28T17:37:13.823Z,1.55
2023-04-28T17:40:08.582Z,1.50
2023-04-28T17:43:02.655Z,2.22
2023-04-28T17:45:56.207Z,1.88
2023-04-28T17:48:50.576Z,1.80
2023-04-28T17:51:44.248Z,1.70
2023-04-28T17:54:37.166Z,1.67
2023-04-28T17:57:30.381Z,1.77
2023-04-28T18:00:23.828Z,1.40
2023-04-28T18:03:17.015Z,1.70
2023-04-28T18:06:11.775Z,1.70
2023-04-28T18:09:05.371Z,1.65
2023-04-28T18:11:58.085Z,1.58
2023-04-28T18:14:51.953Z,1.85
2023-04-28T18:17:45.815Z,1.58
2023-04-28T18:20:38.979Z,1.70
2023-04-28T18:23:34.076Z,1.95
2023-04-28T18:26:27.392Z,1.95
2023-04-28T18:29:20.427Z,1.80
2023-04-28T18:32:15.012Z,1.80
2023-04-28T18:35:08.260Z,1.42
2023-04-28T18:38:01.520Z,1.70
2023-04-28T18:40:55.677Z,2.10
2023-04-28T18:43:49.239Z,1.67
2023-04-28T18:46:42.392Z,1.80
2023-04-28T18:49:35.583Z,1.65
2023-04-28T18:52:29.912Z,1.45
2023-04-28T18:55:23.699Z,1.48
2023-04-28T18:58:18.313Z,1.67
2023-04-28T19:01:15.172Z,1.85
2023-04-28T19:04:09.070Z,2.15
2023-04-28T19:07:02.000Z,1.90
2023-04-28T19:09:55.338Z,1.63
2023-04-28T19:12:48.337Z,2.25
2023-04-28T19:15:42.603Z,2.55
2023-04-28T19:18:37.019Z,2.08
2023-04-28T19:21:30.409Z,2.50
2023-04-28T19:24:23.458Z,2.03
2023-04-28T19:27:16.608Z,1.92
2023-04-28T19:30:13.018Z,2.22
2023-04-28T19:33:08.122Z,2.05
2023-04-28T19:36:01.519Z,2.15
2023-04-28T19:38:54.430Z,2.10
2023-04-28T19:41:48.055Z,1.83
2023-04-28T19:44:41.348Z,2.15
2023-04-28T19:47:36.770Z,2.30
2023-04-28T19:50:32.256Z,2.13
2023-04-28T19:53:25.312Z,2.42
2023-04-28T19:56:18.199Z,2.42
2023-04-28T19:59:11.204Z,2.00
2023-04-28T20:02:07.813Z,2.40
2023-04-28T20:05:01.449Z,2.47
2023-04-28T20:07:56.528Z,2.13
2023-04-28T20:10:50.023Z,2.28
2023-04-28T20:13:43.830Z,2.50
2023-04-28T20:16:37.579Z,2.10
2023-04-28T20:19:30.658Z,2.40
2023-04-28T20:22:24.128Z,2.50
2023-04-28T20:25:18.791Z,2.63
2023-04-28T20:28:12.542Z,2.60
2023-04-28T20:31:09.002Z,2.38
2023-04-28T20:34:02.182Z,2.55
2023-04-28T20:36:56.450Z,3.42
2023-04-28T20:39:50.510Z,2.78
2023-04-28T20:42:45.560Z,2.80
2023-04-28T20:45:38.391Z,2.60
2023-04-28T20:48:31.771Z,3.08
2023-04-28T20:51:25.396Z,3.10
2023-04-28T20:54:18.763Z,3.25
2023-04-28T20:57:12.368Z,3.35
2023-04-28T21:00:08.927Z,3.28
2023-04-28T21:03:04.478Z,3.40
2023-04-28T21:05:58.643Z,3.35
2023-04-28T21:08:52.728Z,3.90
2023-04-28T21:11:46.291Z,3.25
2023-04-28T21:14:39.843Z,2.80
2023-04-28T21:17:34.721Z,3.22
2023-04-28T21:20:28.602Z,3.17
2023-04-28T21:23:21.500Z,2.63
2023-04-28T21:26:14.465Z,2.75
2023-04-28T21:29:08.124Z,2.83
2023-04-28T21:32:01.183Z,2.47
2023-04-28T21:34:55.749Z,2.60
2023-04-28T21:37:49.376Z,2.20
2023-04-28T21:40:42.408Z,2.30
2023-04-28T21:43:35.357Z,2.05
2023-04-28T21:46:28.751Z,2.40
2023-04-28T21:49:22.110Z,1.98
2023-04-28T21:52:16.903Z,2.20
2023-04-28T21:55:10.794Z,2.67
2023-04-28T21:58:04.157Z,2.05
2023-04-28T22:00:57.319Z,2.03
2023-04-28T22:03:50.611Z,1.98
2023-04-28T22:06:46.214Z,2.33
2023-04-28T22:09:40.408Z,2.28
2023-04-28T22:12:33.119Z,2.03
2023-04-28T22:15:27.176Z,1.80
2023-04-28T22:18:20.435Z,2.20
2023-04-28T22:21:13.983Z,2.45
2023-04-28T22:24:08.211Z,1.90
2023-04-28T22:27:03.257Z,1.83
2023-04-28T22:29:56.348Z,2.10
2023-04-28T22:32:49.554Z,1.70
2023-04-28T22:35:42.252Z,1.77
2023-04-28T22:38:35.384Z,1.95
2023-04-28T22:41:28.378Z,2.03
2023-04-28T22:44:22.745Z,1.98
2023-04-28T22:47:17.448Z,2.42
2023-04-28T22:50:11.996Z,2.25
2023-04-28T22:53:05.421Z,1.90
2023-04-28T22:56:00.363Z,1.77
2023-04-28T22:58:53.071Z,2.10
2023-04-28T23:01:47.917Z,1.85
2023-04-28T23:04:41.916Z,1.88
2023-04-28T23:07:35.933Z,1.77
2023-04-28T23:10:29.261Z,1.90
2023-04-28T23:13:22.513Z,2.05
2023-04-28T23:16:15.592Z,1.88
2023-04-28T23:19:09.741Z,1.48
2023-04-28T23:22:03.356Z,2.28
2023-04-28T23:24:56.225Z,1.90
2023-04-28T23:27:49.531Z,1.73
2023-04-28T23:30:42.626Z,1.55
2023-04-28T23:33:35.173Z,2.15
2023-04-28T23:36:29.760Z,1.77
2023-04-28T23:39:22.399Z,2.00
2023-04-28T23:42:16.304Z,1.85
2023-04-28T23:45:10.884Z,2.10
2023-04-28T23:48:04.569Z,1.90
2023-04-28T23:50:57.574Z,2.00
2023-04-28T23:53:52.259Z,2.00
2023-04-28T23:56:45.216Z,1.80
2023-04-28T23:59:38.374Z,1.77
